createdAt,value
2017-12-15T00:00:54.653Z,58.00
2017-12-15T00:03:23.970Z,57.40
2017-12-15T00:05:52.237Z,57.30
2017-12-15T00:08:20.494Z,57.30
2017-12-15T00:10:48.924Z,57.40
2017-12-15T00:13:17.162Z,57.40
2017-12-15T00:15:45.470Z,57.40
2017-12-15T00:18:13.724Z,57.40
2017-12-15T00:20:42.047Z,57.40
2017-12-15T00:23:12.316Z,57.50
2017-12-15T00:25:40.578Z,57.40
2017-12-15T00:28:08.854Z,57.50
2017-12-15T00:30:37.120Z,57.50
2017-12-15T00:33:06.168Z,57.60
2017-12-15T00:35:34.444Z,57.50
2017-12-15T00:40:56.718Z,57.60
2017-12-15T00:43:25.427Z,57.60
2017-12-15T00:45:53.674Z,57.60
2017-12-15T00:48:21.964Z,57.70
2017-12-15T00:50:50.270Z,57.70
2017-12-15T00:53:19.309Z,57.60
2017-12-15T00:55:47.600Z,57.60
2017-12-15T00:58:15.875Z,57.70
2017-12-15T01:00:44.468Z,57.60
2017-12-15T01:03:12.736Z,57.60
2017-12-15T01:05:41.001Z,57.60
2017-12-15T01:08:09.280Z,57.50
2017-12-15T01:10:37.553Z,57.50
2017-12-15T01:13:05.829Z,57.50
2017-12-15T01:15:34.091Z,57.50
2017-12-15T01:18:02.398Z,57.50
2017-12-15T01:20:30.675Z,57.50
2017-12-15T01:22:58.945Z,57.50
2017-12-15T01:25:27.241Z,57.50
2017-12-15T01:27:55.566Z,57.50
2017-12-15T01:30:23.855Z,57.60
2017-12-15T01:32:52.109Z,57.50
2017-12-15T01:35:21.282Z,57.50
2017-12-15T01:37:59.414Z,57.50
2017-12-15T01:40:27.706Z,58.20
2017-12-15T01:42:56.730Z,57.50
2017-12-15T01:45:40.289Z,57.40
2017-12-15T01:48:08.546Z,57.40
2017-12-15T01:50:37.278Z,57.40
2017-12-15T01:53:05.560Z,57.40
2017-12-15T01:55:33.831Z,57.40
2017-12-15T01:58:02.103Z,57.40
2017-12-15T02:00:30.365Z,57.50
2017-12-15T02:02:58.636Z,57.40
2017-12-15T02:05:26.943Z,57.40
2017-12-15T02:07:55.275Z,57.50
2017-12-15T02:10:23.556Z,57.50
2017-12-15T02:12:51.892Z,57.50
2017-12-15T02:15:20.151Z,57.60
2017-12-15T02:17:48.401Z,57.40
2017-12-15T02:20:16.705Z,57.40
2017-12-15T02:22:44.980Z,57.40
2017-12-15T02:25:13.248Z,57.20
2017-12-15T02:27:42.037Z,57.30
2017-12-15T02:30:10.338Z,57.20
2017-12-15T02:32:38.604Z,57.20
2017-12-15T02:35:11.147Z,57.20
2017-12-15T02:37:39.428Z,57.30
2017-12-15T02:40:07.738Z,57.30
2017-12-15T02:42:36.000Z,57.20
2017-12-15T02:45:04.272Z,57.30
2017-12-15T02:47:32.547Z,57.50
2017-12-15T02:50:00.798Z,57.30
2017-12-15T02:52:29.086Z,57.40
2017-12-15T02:54:57.351Z,57.40
2017-12-15T02:57:25.636Z,57.40
2017-12-15T02:59:53.896Z,57.40
2017-12-15T03:02:22.257Z,57.40
2017-12-15T03:04:50.514Z,57.40
2017-12-15T03:07:18.784Z,57.40
2017-12-15T03:09:47.066Z,57.50
2017-12-15T03:12:15.321Z,57.50
2017-12-15T03:14:43.620Z,57.40
2017-12-15T03:17:11.885Z,57.50
2017-12-15T03:19:40.445Z,57.40
2017-12-15T03:22:08.693Z,57.50
2017-12-15T03:24:37.741Z,57.50
2017-12-15T03:27:06.037Z,57.40
2017-12-15T03:29:34.306Z,57.50
2017-12-15T03:32:02.586Z,57.60
2017-12-15T03:34:31.636Z,57.60
2017-12-15T03:37:00.692Z,57.60
2017-12-15T03:39:30.772Z,57.50
2017-12-15T03:41:59.832Z,57.60
2017-12-15T03:44:28.895Z,57.50
2017-12-15T03:46:57.142Z,57.60
2017-12-15T03:49:25.429Z,57.60
2017-12-15T03:51:53.692Z,57.60
2017-12-15T03:54:40.024Z,57.60
2017-12-15T03:57:08.290Z,57.50
2017-12-15T03:59:36.571Z,57.50
2017-12-15T04:02:04.877Z,57.50
2017-12-15T04:04:33.908Z,58.30
2017-12-15T04:07:02.185Z,57.60
2017-12-15T04:09:30.440Z,57.60
2017-12-15T04:11:59.828Z,57.80
2017-12-15T04:14:28.851Z,57.80
2017-12-15T04:16:57.116Z,57.80
2017-12-15T04:19:26.164Z,57.80
2017-12-15T04:21:54.470Z,57.80
2017-12-15T04:24:22.755Z,57.90
2017-12-15T04:27:02.849Z,57.80
2017-12-15T04:29:31.149Z,57.80
2017-12-15T04:31:59.410Z,57.90
2017-12-15T04:34:27.722Z,57.90
2017-12-15T04:36:55.993Z,57.90
2017-12-15T04:39:24.282Z,57.80
2017-12-15T04:41:52.589Z,57.90
2017-12-15T04:44:21.624Z,57.90
2017-12-15T04:46:49.910Z,57.90
2017-12-15T04:49:18.218Z,58.00
2017-12-15T04:51:46.822Z,58.00
2017-12-15T04:54:15.090Z,58.00
2017-12-15T04:56:44.146Z,58.00
2017-12-15T04:59:12.444Z,58.00
2017-12-15T05:01:40.701Z,58.00
2017-12-15T05:04:09.031Z,58.20
2017-12-15T05:06:38.058Z,58.30
2017-12-15T05:09:06.398Z,58.30
2017-12-15T05:11:35.430Z,58.90
2017-12-15T05:14:03.700Z,58.30
2017-12-15T05:16:32.012Z,58.30
2017-12-15T05:19:00.294Z,58.40
2017-12-15T05:21:28.586Z,58.40
2017-12-15T05:23:56.846Z,58.40
2017-12-15T05:26:30.946Z,58.50
2017-12-15T05:28:59.198Z,58.50
2017-12-15T05:31:27.460Z,58.60
2017-12-15T05:33:56.513Z,58.70
2017-12-15T05:36:41.495Z,58.70
2017-12-15T05:39:11.253Z,58.80
2017-12-15T05:41:39.520Z,58.80
2017-12-15T05:44:07.826Z,58.90
2017-12-15T05:46:36.102Z,59.00
2017-12-15T05:49:04.360Z,59.10
2017-12-15T05:51:33.440Z,59.30
2017-12-15T05:54:02.478Z,59.20
2017-12-15T05:56:30.764Z,59.20
2017-12-15T05:58:59.025Z,59.30
2017-12-15T06:01:28.091Z,59.30
2017-12-15T06:03:56.342Z,59.30
2017-12-15T06:06:24.601Z,59.30
2017-12-15T06:09:00.501Z,59.40
2017-12-15T06:11:29.649Z,59.70
2017-12-15T06:13:57.916Z,59.60
2017-12-15T06:16:26.177Z,59.80
2017-12-15T06:18:54.501Z,59.80
2017-12-15T06:21:22.787Z,59.90
2017-12-15T06:23:51.096Z,59.90
2017-12-15T06:26:19.371Z,60.00
2017-12-15T06:28:48.005Z,60.00
2017-12-15T06:31:16.262Z,60.10
2017-12-15T06:33:44.578Z,60.10
2017-12-15T06:36:12.872Z,60.20
2017-12-15T06:38:42.921Z,60.30
2017-12-15T06:41:11.185Z,60.30
2017-12-15T06:43:39.462Z,60.40
2017-12-15T06:46:07.784Z,60.60
2017-12-15T06:48:36.053Z,60.60
2017-12-15T06:51:04.320Z,60.70
2017-12-15T06:53:32.646Z,60.90
2017-12-15T06:56:00.932Z,61.00
2017-12-15T06:58:29.990Z,61.90
2017-12-15T07:01:00.181Z,61.20
2017-12-15T07:03:28.833Z,61.20
2017-12-15T07:05:57.112Z,61.30
2017-12-15T07:08:25.365Z,61.40
2017-12-15T07:10:53.653Z,61.50
2017-12-15T07:13:21.943Z,61.50
2017-12-15T07:15:50.228Z,61.50
2017-12-15T07:18:19.270Z,61.50
2017-12-15T07:20:47.562Z,61.50
2017-12-15T07:23:16.826Z,61.60
2017-12-15T07:25:45.094Z,61.60
2017-12-15T07:28:13.391Z,61.60
2017-12-15T07:30:41.666Z,61.60
2017-12-15T07:33:09.942Z,61.60
2017-12-15T07:35:38.205Z,61.60
2017-12-15T07:38:06.525Z,61.70
2017-12-15T07:40:34.809Z,61.70
2017-12-15T07:43:03.091Z,61.80
2017-12-15T07:45:37.276Z,61.80
2017-12-15T07:48:05.550Z,61.80
2017-12-15T07:50:34.677Z,61.90
2017-12-15T07:53:02.938Z,61.90
2017-12-15T07:55:31.217Z,61.90
2017-12-15T07:57:59.536Z,61.90
2017-12-15T08:00:27.810Z,62.00
2017-12-15T08:02:56.877Z,62.40
2017-12-15T08:05:25.151Z,61.90
2017-12-15T08:07:53.460Z,61.90
2017-12-15T08:10:21.738Z,62.10
2017-12-15T08:12:50.004Z,62.10
2017-12-15T08:15:18.305Z,62.00
2017-12-15T08:17:47.346Z,61.90
2017-12-15T08:20:15.619Z,61.90
2017-12-15T08:22:43.926Z,61.90
2017-12-15T08:25:12.219Z,62.00
2017-12-15T08:27:40.488Z,61.80
2017-12-15T08:30:08.757Z,61.90
2017-12-15T08:32:37.028Z,61.90
2017-12-15T08:35:05.315Z,61.70
2017-12-15T08:37:34.854Z,61.80
2017-12-15T08:40:03.107Z,62.50
2017-12-15T08:42:31.373Z,62.80
2017-12-15T08:44:59.653Z,61.90
2017-12-15T08:47:27.920Z,62.00
2017-12-15T08:49:56.210Z,62.30
2017-12-15T08:52:24.484Z,62.30
2017-12-15T08:54:52.796Z,62.30
2017-12-15T08:57:21.834Z,62.70
2017-12-15T08:59:50.105Z,62.70
2017-12-15T09:02:18.389Z,63.00
2017-12-15T09:04:56.558Z,62.90
2017-12-15T09:07:25.629Z,62.90
2017-12-15T09:09:53.891Z,62.90
2017-12-15T09:12:22.183Z,63.00
2017-12-15T09:15:12.543Z,63.00
2017-12-15T09:17:38.168Z,63.10
2017-12-15T09:20:06.457Z,63.20
2017-12-15T09:22:34.733Z,63.20
2017-12-15T09:25:02.997Z,63.50
2017-12-15T09:27:31.275Z,63.70
2017-12-15T09:30:06.037Z,63.80
2017-12-15T09:32:34.292Z,63.80
2017-12-15T09:35:02.570Z,64.60
2017-12-15T09:37:30.838Z,63.80
2017-12-15T09:39:59.177Z,63.80
2017-12-15T09:42:28.206Z,64.20
2017-12-15T09:44:56.471Z,64.20
2017-12-15T09:47:24.767Z,64.30
2017-12-15T09:49:53.024Z,64.40
2017-12-15T09:52:23.287Z,64.70
2017-12-15T09:54:51.544Z,64.60
2017-12-15T09:57:19.858Z,64.90
2017-12-15T09:59:48.125Z,65.00
2017-12-15T10:02:16.391Z,65.10
2017-12-15T10:04:44.668Z,65.30
2017-12-15T10:07:12.929Z,65.50
2017-12-15T10:09:41.230Z,65.40
2017-12-15T10:12:10.284Z,65.70
2017-12-15T10:14:39.346Z,65.70
2017-12-15T10:17:07.628Z,65.80
2017-12-15T10:19:36.094Z,65.90
2017-12-15T10:22:04.357Z,65.90
2017-12-15T10:24:32.706Z,66.00
2017-12-15T10:27:01.928Z,66.00
2017-12-15T10:29:30.209Z,66.10
2017-12-15T10:31:58.484Z,66.10
2017-12-15T10:34:26.764Z,66.20
2017-12-15T10:36:55.050Z,66.20
2017-12-15T10:39:23.348Z,66.20
2017-12-15T10:41:51.622Z,66.20
2017-12-15T10:44:19.917Z,66.30
2017-12-15T10:46:48.949Z,65.70
2017-12-15T10:49:17.238Z,65.70
2017-12-15T10:51:45.512Z,65.70
2017-12-15T10:54:14.787Z,65.70
2017-12-15T10:56:43.885Z,65.50
2017-12-15T10:59:12.169Z,65.50
2017-12-15T11:01:40.451Z,65.50
2017-12-15T11:04:08.703Z,65.60
2017-12-15T11:06:37.775Z,65.70
2017-12-15T11:09:06.006Z,65.70
2017-12-15T11:11:34.293Z,65.40
2017-12-15T11:14:02.550Z,65.30
2017-12-15T11:16:30.832Z,65.20
2017-12-15T11:18:59.108Z,65.20
2017-12-15T11:21:27.388Z,65.10
2017-12-15T11:23:55.702Z,65.10
2017-12-15T11:26:24.022Z,64.40
2017-12-15T11:28:52.268Z,64.60
2017-12-15T11:31:20.525Z,64.60
2017-12-15T11:33:48.808Z,64.50
2017-12-15T11:36:17.065Z,64.40
2017-12-15T11:38:45.354Z,64.20
2017-12-15T11:41:13.766Z,65.00
2017-12-15T11:43:42.006Z,65.20
2017-12-15T11:46:10.281Z,65.20
2017-12-15T11:48:38.559Z,64.10
2017-12-15T11:51:06.839Z,61.80
2017-12-15T11:53:35.113Z,59.90
2017-12-15T11:56:03.951Z,59.00
2017-12-15T11:58:32.217Z,57.40
2017-12-15T12:01:00.482Z,57.20
2017-12-15T12:03:29.717Z,56.00
2017-12-15T12:05:58.828Z,55.20
2017-12-15T12:08:27.114Z,55.10
2017-12-15T12:10:55.373Z,56.40
2017-12-15T12:13:24.428Z,56.80
2017-12-15T12:15:52.698Z,56.70
2017-12-15T12:18:21.012Z,57.00
2017-12-15T12:20:49.273Z,57.30
2017-12-15T12:23:17.531Z,57.20
2017-12-15T12:25:45.826Z,57.30
2017-12-15T12:28:14.113Z,57.50
2017-12-15T12:30:42.380Z,57.60
2017-12-15T12:33:10.650Z,57.60
2017-12-15T12:35:38.919Z,57.60
2017-12-15T12:38:07.697Z,57.70
2017-12-15T12:40:36.768Z,57.80
2017-12-15T12:43:05.037Z,57.20
2017-12-15T12:45:33.329Z,57.10
2017-12-15T12:48:01.629Z,57.30
2017-12-15T12:50:29.894Z,57.30
2017-12-15T12:52:58.190Z,57.40
2017-12-15T12:55:26.458Z,57.50
2017-12-15T12:57:54.746Z,57.60
2017-12-15T13:00:23.022Z,57.60
2017-12-15T13:02:51.286Z,57.70
2017-12-15T13:05:19.570Z,57.70
2017-12-15T13:07:47.829Z,57.90
2017-12-15T13:10:17.884Z,57.90
2017-12-15T13:12:46.136Z,57.90
2017-12-15T13:15:14.402Z,57.90
2017-12-15T13:17:42.690Z,58.20
2017-12-15T13:20:11.791Z,57.90
2017-12-15T13:22:40.048Z,58.00
2017-12-15T13:25:08.347Z,57.90
2017-12-15T13:27:36.643Z,58.00
2017-12-15T13:30:04.916Z,58.00
2017-12-15T13:32:33.196Z,57.90
2017-12-15T13:35:01.471Z,58.00
2017-12-15T13:37:29.747Z,57.90
2017-12-15T13:39:58.041Z,57.90
2017-12-15T13:42:26.317Z,58.00
2017-12-15T13:44:54.613Z,57.90
2017-12-15T13:47:22.903Z,57.80
2017-12-15T13:49:51.170Z,57.80
2017-12-15T13:52:19.470Z,57.60
2017-12-15T13:54:47.758Z,58.20
2017-12-15T13:57:16.043Z,57.60
2017-12-15T13:59:44.334Z,57.70
2017-12-15T14:02:12.626Z,57.70
2017-12-15T14:04:40.912Z,57.60
2017-12-15T14:07:09.237Z,57.60
2017-12-15T14:09:37.501Z,57.50
2017-12-15T14:12:05.760Z,57.50
2017-12-15T14:14:34.067Z,57.50
2017-12-15T14:17:03.091Z,57.40
2017-12-15T14:19:31.384Z,57.40
2017-12-15T14:21:59.650Z,57.30
2017-12-15T14:24:27.934Z,57.30
2017-12-15T14:26:56.182Z,57.30
2017-12-15T14:29:24.480Z,57.20
2017-12-15T14:31:53.383Z,57.10
2017-12-15T14:34:22.261Z,57.20
2017-12-15T14:36:51.335Z,57.20
2017-12-15T14:39:21.645Z,57.10
2017-12-15T14:41:49.948Z,57.00
2017-12-15T14:44:18.345Z,57.00
2017-12-15T14:46:46.643Z,56.90
2017-12-15T14:49:14.926Z,56.80
2017-12-15T14:51:43.200Z,56.80
2017-12-15T14:54:11.505Z,56.90
2017-12-15T14:56:39.826Z,56.90
2017-12-15T14:59:08.953Z,56.90
2017-12-15T15:01:37.229Z,57.00
2017-12-15T15:04:05.588Z,57.00
2017-12-15T15:06:33.900Z,57.00
2017-12-15T15:09:02.224Z,57.00
2017-12-15T15:11:30.510Z,57.10
2017-12-15T15:13:58.812Z,57.20
2017-12-15T15:16:27.105Z,57.20
2017-12-15T15:18:55.798Z,57.30
2017-12-15T15:21:24.896Z,57.40
2017-12-15T15:23:53.247Z,57.40
2017-12-15T15:26:21.529Z,57.50
2017-12-15T15:28:49.952Z,57.50
2017-12-15T15:31:18.781Z,57.60
2017-12-15T15:33:47.065Z,57.60
2017-12-15T15:36:15.385Z,57.70
2017-12-15T15:38:43.684Z,57.80
2017-12-15T15:41:11.928Z,57.90
2017-12-15T15:43:40.239Z,57.90
2017-12-15T15:46:08.527Z,57.90
2017-12-15T15:48:37.599Z,58.00
2017-12-15T15:51:05.917Z,58.00
2017-12-15T15:53:34.944Z,58.00
2017-12-15T15:56:03.317Z,58.00
2017-12-15T15:58:31.610Z,58.00
2017-12-15T16:00:59.953Z,58.10
2017-12-15T16:03:28.210Z,58.40
2017-12-15T16:05:58.389Z,58.10
2017-12-15T16:08:26.721Z,58.00
2017-12-15T16:10:55.783Z,57.90
2017-12-15T16:13:24.074Z,57.90
2017-12-15T16:15:52.406Z,57.80
2017-12-15T16:18:20.748Z,57.80
2017-12-15T16:20:53.620Z,57.80
2017-12-15T16:23:29.205Z,58.40
2017-12-15T16:25:57.467Z,57.80
2017-12-15T16:28:26.540Z,57.70
2017-12-15T16:30:54.946Z,57.80
2017-12-15T16:33:24.545Z,57.70
2017-12-15T16:35:55.531Z,57.80
2017-12-15T16:38:23.918Z,58.00
2017-12-15T16:40:52.498Z,57.90
2017-12-15T16:45:58.726Z,57.90
2017-12-15T16:48:29.988Z,57.90
2017-12-15T16:51:01.197Z,58.00
2017-12-15T16:53:32.070Z,58.00
2017-12-15T16:56:00.519Z,58.00
2017-12-15T16:58:39.865Z,58.10
2017-12-15T17:01:11.146Z,58.20
2017-12-15T17:03:39.497Z,58.50
2017-12-15T17:06:20.122Z,58.30
2017-12-15T17:08:48.498Z,58.20
2017-12-15T17:11:16.833Z,58.90
2017-12-15T17:13:45.126Z,58.40
2017-12-15T17:16:13.463Z,58.40
2017-12-15T17:18:41.825Z,58.50
2017-12-15T17:21:10.204Z,58.50
2017-12-15T17:23:38.533Z,58.50
2017-12-15T17:26:07.739Z,58.70
2017-12-15T17:28:36.838Z,58.70
2017-12-15T17:31:05.285Z,58.80
2017-12-15T17:33:33.570Z,58.90
2017-12-15T17:36:02.628Z,58.90
2017-12-15T17:38:30.983Z,58.90
2017-12-15T17:40:59.246Z,59.00
2017-12-15T17:43:27.644Z,59.10
2017-12-15T17:45:55.973Z,59.10
2017-12-15T17:48:24.363Z,59.20
2017-12-15T17:50:52.647Z,59.10
2017-12-15T17:53:21.215Z,59.10
2017-12-15T17:55:49.528Z,59.00
2017-12-15T17:58:17.811Z,59.00
2017-12-15T18:00:46.191Z,59.00
2017-12-15T18:03:15.265Z,58.90
2017-12-15T18:05:43.928Z,58.90
2017-12-15T18:08:12.290Z,58.90
2017-12-15T18:10:40.561Z,58.90
2017-12-15T18:13:08.871Z,59.00
2017-12-15T18:15:48.162Z,59.00
2017-12-15T18:18:16.571Z,59.00
2017-12-15T18:20:44.863Z,59.00
2017-12-15T18:23:13.181Z,59.10
2017-12-15T18:25:41.488Z,59.30
2017-12-15T18:28:09.824Z,59.40
2017-12-15T18:30:38.198Z,59.50
2017-12-15T18:33:07.296Z,59.70
2017-12-15T18:35:36.400Z,59.80
2017-12-15T18:38:05.533Z,59.80
2017-12-15T18:40:33.842Z,59.90
2017-12-15T18:43:02.126Z,59.70
2017-12-15T18:45:30.473Z,59.80
2017-12-15T18:47:59.623Z,59.70
2017-12-15T18:50:28.007Z,59.70
2017-12-15T18:52:56.414Z,59.80
2017-12-15T18:55:24.723Z,59.70
2017-12-15T18:57:53.044Z,59.60
2017-12-15T19:00:22.170Z,59.50
2017-12-15T19:02:50.600Z,59.40
2017-12-15T19:05:18.919Z,59.40
2017-12-15T19:07:53.580Z,59.30
2017-12-15T19:10:21.911Z,59.30
2017-12-15T19:12:51.034Z,59.60
2017-12-15T19:15:19.382Z,59.30
2017-12-15T19:17:48.447Z,59.30
2017-12-15T19:20:17.014Z,60.00
2017-12-15T19:22:45.643Z,59.30
2017-12-15T19:25:14.930Z,59.40
2017-12-15T19:27:43.325Z,59.40
2017-12-15T19:30:13.700Z,59.50
2017-12-15T19:32:42.787Z,59.40
2017-12-15T19:35:11.077Z,59.40
2017-12-15T19:37:39.401Z,59.40
2017-12-15T19:40:07.818Z,59.40
2017-12-15T19:42:36.176Z,59.40
2017-12-15T19:45:05.335Z,59.40
2017-12-15T19:47:33.636Z,59.40
2017-12-15T19:50:02.892Z,59.30
2017-12-15T19:52:31.226Z,59.30
2017-12-15T19:54:59.595Z,59.40
2017-12-15T19:57:28.002Z,59.30
2017-12-15T19:59:56.388Z,59.00
2017-12-15T20:02:26.040Z,59.20
2017-12-15T20:04:54.623Z,59.20
2017-12-15T20:07:23.044Z,59.30
2017-12-15T20:09:51.753Z,59.30
2017-12-15T20:12:20.380Z,59.30
2017-12-15T20:14:49.086Z,59.20
2017-12-15T20:17:17.978Z,59.30
2017-12-15T20:19:47.321Z,59.30
2017-12-15T20:22:15.824Z,59.30
2017-12-15T20:24:44.540Z,59.50
2017-12-15T20:27:13.156Z,59.60
2017-12-15T20:29:41.720Z,59.50
2017-12-15T20:32:10.954Z,59.40
2017-12-15T20:34:39.578Z,59.50
2017-12-15T20:37:08.058Z,59.50
2017-12-15T20:39:36.624Z,59.50
2017-12-15T20:42:05.186Z,59.50
2017-12-15T20:44:33.764Z,59.50
2017-12-15T20:47:02.382Z,59.50
2017-12-15T20:49:31.810Z,59.60
2017-12-15T20:52:01.063Z,59.60
2017-12-15T20:54:29.638Z,59.60
2017-12-15T20:56:58.216Z,59.60
2017-12-15T20:59:27.189Z,59.70
2017-12-15T21:01:55.811Z,59.70
2017-12-15T21:04:24.393Z,59.60
2017-12-15T21:06:52.802Z,59.60
2017-12-15T21:09:21.397Z,59.60
2017-12-15T21:11:49.882Z,59.60
2017-12-15T21:14:18.595Z,59.50
2017-12-15T21:16:46.928Z,59.50
2017-12-15T21:19:15.267Z,59.40
2017-12-15T21:21:43.551Z,59.50
2017-12-15T21:24:12.628Z,59.50
2017-12-15T21:26:42.949Z,59.50
2017-12-15T21:29:11.223Z,59.40
2017-12-15T21:31:39.546Z,59.40
2017-12-15T21:34:08.812Z,59.30
2017-12-15T21:36:38.309Z,59.30
2017-12-15T21:39:06.635Z,59.30
2017-12-15T21:41:35.145Z,59.20
2017-12-15T21:44:03.490Z,59.20
2017-12-15T21:46:32.606Z,59.10
2017-12-15T21:49:01.197Z,59.20
2017-12-15T21:51:29.656Z,59.20
2017-12-15T21:53:58.778Z,59.10
2017-12-15T21:56:27.044Z,59.20
2017-12-15T21:58:55.355Z,59.10
2017-12-15T22:01:23.724Z,59.00
2017-12-15T22:03:52.046Z,58.90
2017-12-15T22:06:20.395Z,58.90
2017-12-15T22:08:48.692Z,59.00
2017-12-15T22:11:17.105Z,59.00
2017-12-15T22:13:45.396Z,58.90
2017-12-15T22:16:14.480Z,59.00
2017-12-15T22:18:43.586Z,58.90
2017-12-15T22:21:11.876Z,59.00
2017-12-15T22:23:40.199Z,58.90
2017-12-15T22:26:08.724Z,59.00
2017-12-15T22:28:37.224Z,59.00
2017-12-15T22:31:05.515Z,59.00
2017-12-15T22:33:33.902Z,58.90
2017-12-15T22:36:02.214Z,59.00
2017-12-15T22:38:30.485Z,59.00
2017-12-15T22:40:58.832Z,58.90
2017-12-15T22:43:27.115Z,59.00
2017-12-15T22:45:55.465Z,58.90
2017-12-15T22:48:41.712Z,58.90
2017-12-15T22:51:10.009Z,59.00
2017-12-15T22:53:39.098Z,59.10
2017-12-15T22:56:07.554Z,59.10
2017-12-15T22:58:35.849Z,59.10
2017-12-15T23:01:04.099Z,59.10
2017-12-15T23:03:32.479Z,59.20
2017-12-15T23:06:00.795Z,59.20
2017-12-15T23:08:29.180Z,59.10
2017-12-15T23:10:57.552Z,59.30
2017-12-15T23:13:25.869Z,59.30
2017-12-15T23:15:54.137Z,59.30
2017-12-15T23:18:22.426Z,59.30
2017-12-15T23:20:50.725Z,59.30
2017-12-15T23:23:19.028Z,59.40
2017-12-15T23:25:47.355Z,59.40
2017-12-15T23:28:15.646Z,59.40
2017-12-15T23:30:43.931Z,59.30
2017-12-15T23:33:17.673Z,59.30
2017-12-15T23:35:46.257Z,59.20
2017-12-15T23:38:14.521Z,59.40
2017-12-15T23:40:42.901Z,59.20
2017-12-15T23:43:11.161Z,59.20
2017-12-15T23:45:39.558Z,59.20
2017-12-15T23:48:07.838Z,59.30
2017-12-15T23:50:36.114Z,59.30
2017-12-15T23:53:04.741Z,59.40
2017-12-15T23:55:45.442Z,59.40
2017-12-15T23:58:13.814Z,59.40
